sensor_id;sensor_type;location;lat;lon;timestamp;P1;durP1;ratioP1;P2;durP2;ratioP2
18200;SDS011;9226;47.858;9.594;2024-01-10T00:00:36;37.57;;;11.47;;
18200;SDS011;9226;47.858;9.594;2024-01-10T00:03:02;34.37;;;10.50;;
18200;SDS011;9226;47.858;9.594;2024-01-10T00:05:28;37.40;;;11.03;;
18200;SDS011;9226;47.858;9.594;2024-01-10T00:07:53;33.30;;;10.43;;
18200;SDS011;9226;47.858;9.594;2024-01-10T00:10:19;26.43;;;9.20;;
18200;SDS011;9226;47.858;9.594;2024-01-10T00:12:44;37.70;;;11.77;;
18200;SDS011;9226;47.858;9.594;2024-01-10T00:15:10;36.03;;;11.13;;
18200;SDS011;9226;47.858;9.594;2024-01-10T00:17:35;36.83;;;11.47;;
18200;SDS011;9226;47.858;9.594;2024-01-10T00:20:01;29.93;;;9.83;;
18200;SDS011;9226;47.858;9.594;2024-01-10T00:22:26;29.40;;;10.80;;
18200;SDS011;9226;47.858;9.594;2024-01-10T00:24:52;35.70;;;11.10;;
18200;SDS011;9226;47.858;9.594;2024-01-10T00:27:17;41.00;;;11.53;;
18200;SDS011;9226;47.858;9.594;2024-01-10T00:29:42;31.23;;;11.97;;
18200;SDS011;9226;47.858;9.594;2024-01-10T00:32:08;28.40;;;10.60;;
18200;SDS011;9226;47.858;9.594;2024-01-10T00:34:33;34.50;;;10.83;;
18200;SDS011;9226;47.858;9.594;2024-01-10T00:36:59;34.73;;;11.80;;
18200;SDS011;9226;47.858;9.594;2024-01-10T00:39:24;33.63;;;10.93;;
18200;SDS011;9226;47.858;9.594;2024-01-10T00:41:49;34.10;;;12.00;;
18200;SDS011;9226;47.858;9.594;2024-01-10T00:44:15;31.43;;;10.33;;
18200;SDS011;9226;47.858;9.594;2024-01-10T00:46:40;38.37;;;12.17;;
18200;SDS011;9226;47.858;9.594;2024-01-10T00:49:05;37.23;;;11.60;;
18200;SDS011;9226;47.858;9.594;2024-01-10T00:51:31;33.40;;;10.83;;
18200;SDS011;9226;47.858;9.594;2024-01-10T00:53:56;38.53;;;11.40;;
18200;SDS011;9226;47.858;9.594;2024-01-10T00:56:22;38.87;;;11.73;;
18200;SDS011;9226;47.858;9.594;2024-01-10T00:58:47;38.30;;;11.67;;
18200;SDS011;9226;47.858;9.594;2024-01-10T01:01:13;33.37;;;10.80;;
18200;SDS011;9226;47.858;9.594;2024-01-10T01:03:39;37.30;;;10.93;;
18200;SDS011;9226;47.858;9.594;2024-01-10T01:06:04;38.03;;;12.13;;
18200;SDS011;9226;47.858;9.594;2024-01-10T01:08:29;39.10;;;12.43;;
18200;SDS011;9226;47.858;9.594;2024-01-10T01:10:55;41.47;;;12.80;;
18200;SDS011;9226;47.858;9.594;2024-01-10T01:13:20;42.07;;;12.10;;
18200;SDS011;9226;47.858;9.594;2024-01-10T01:15:46;38.17;;;12.70;;
18200;SDS011;9226;47.858;9.594;2024-01-10T01:18:11;33.20;;;12.33;;
18200;SDS011;9226;47.858;9.594;2024-01-10T01:20:37;37.77;;;12.47;;
18200;SDS011;9226;47.858;9.594;2024-01-10T01:23:03;39.53;;;11.93;;
18200;SDS011;9226;47.858;9.594;2024-01-10T01:25:28;42.40;;;13.57;;
18200;SDS011;9226;47.858;9.594;2024-01-10T01:27:54;37.43;;;11.77;;
18200;SDS011;9226;47.858;9.594;2024-01-10T01:30:19;41.37;;;12.07;;
18200;SDS011;9226;47.858;9.594;2024-01-10T01:32:46;38.17;;;12.40;;
18200;SDS011;9226;47.858;9.594;2024-01-10T01:35:12;34.60;;;12.40;;
18200;SDS011;9226;47.858;9.594;2024-01-10T01:37:37;40.97;;;12.93;;
18200;SDS011;9226;47.858;9.594;2024-01-10T01:40:03;40.03;;;12.90;;
18200;SDS011;9226;47.858;9.594;2024-01-10T01:42:29;42.10;;;13.00;;
18200;SDS011;9226;47.858;9.594;2024-01-10T01:44:54;40.23;;;11.97;;
18200;SDS011;9226;47.858;9.594;2024-01-10T01:47:19;37.07;;;13.10;;
18200;SDS011;9226;47.858;9.594;2024-01-10T01:49:45;38.23;;;13.73;;
18200;SDS011;9226;47.858;9.594;2024-01-10T01:52:10;47.60;;;13.63;;
18200;SDS011;9226;47.858;9.594;2024-01-10T01:54:36;37.63;;;12.03;;
18200;SDS011;9226;47.858;9.594;2024-01-10T01:57:02;44.53;;;14.60;;
18200;SDS011;9226;47.858;9.594;2024-01-10T01:59:28;35.30;;;13.17;;
18200;SDS011;9226;47.858;9.594;2024-01-10T02:01:54;36.70;;;12.27;;
18200;SDS011;9226;47.858;9.594;2024-01-10T02:04:21;36.20;;;12.47;;
18200;SDS011;9226;47.858;9.594;2024-01-10T02:06:48;41.47;;;12.70;;
18200;SDS011;9226;47.858;9.594;2024-01-10T02:09:13;34.07;;;11.50;;
18200;SDS011;9226;47.858;9.594;2024-01-10T02:11:39;47.10;;;12.73;;
18200;SDS011;9226;47.858;9.594;2024-01-10T02:14:05;38.73;;;13.00;;
18200;SDS011;9226;47.858;9.594;2024-01-10T02:16:30;35.00;;;13.17;;
18200;SDS011;9226;47.858;9.594;2024-01-10T02:18:56;44.20;;;11.20;;
18200;SDS011;9226;47.858;9.594;2024-01-10T02:21:21;42.50;;;13.27;;
18200;SDS011;9226;47.858;9.594;2024-01-10T02:23:47;32.77;;;12.17;;
18200;SDS011;9226;47.858;9.594;2024-01-10T02:26:13;38.50;;;12.87;;
18200;SDS011;9226;47.858;9.594;2024-01-10T02:28:39;48.23;;;13.57;;
18200;SDS011;9226;47.858;9.594;2024-01-10T02:31:05;39.97;;;13.20;;
18200;SDS011;9226;47.858;9.594;2024-01-10T02:33:32;48.00;;;12.93;;
18200;SDS011;9226;47.858;9.594;2024-01-10T02:35:57;44.77;;;13.07;;
18200;SDS011;9226;47.858;9.594;2024-01-10T02:38:23;38.30;;;12.27;;
18200;SDS011;9226;47.858;9.594;2024-01-10T02:40:49;36.63;;;12.33;;
18200;SDS011;9226;47.858;9.594;2024-01-10T02:43:14;42.40;;;12.97;;
18200;SDS011;9226;47.858;9.594;2024-01-10T02:45:40;46.10;;;14.17;;
18200;SDS011;9226;47.858;9.594;2024-01-10T02:48:06;37.57;;;12.37;;
18200;SDS011;9226;47.858;9.594;2024-01-10T02:50:31;39.53;;;13.93;;
18200;SDS011;9226;47.858;9.594;2024-01-10T02:52:57;41.23;;;13.73;;
18200;SDS011;9226;47.858;9.594;2024-01-10T02:55:22;41.70;;;12.90;;
18200;SDS011;9226;47.858;9.594;2024-01-10T02:57:48;38.90;;;11.70;;
18200;SDS011;9226;47.858;9.594;2024-01-10T03:00:13;34.73;;;11.73;;
18200;SDS011;9226;47.858;9.594;2024-01-10T03:02:38;42.30;;;14.23;;
18200;SDS011;9226;47.858;9.594;2024-01-10T03:05:04;34.97;;;12.57;;
18200;SDS011;9226;47.858;9.594;2024-01-10T03:07:30;49.27;;;13.20;;
18200;SDS011;9226;47.858;9.594;2024-01-10T03:09:55;37.70;;;12.67;;
18200;SDS011;9226;47.858;9.594;2024-01-10T03:12:20;46.93;;;12.37;;
18200;SDS011;9226;47.858;9.594;2024-01-10T03:14:46;40.67;;;12.97;;
18200;SDS011;9226;47.858;9.594;2024-01-10T03:17:11;40.60;;;13.20;;
18200;SDS011;9226;47.858;9.594;2024-01-10T03:19:36;50.07;;;14.40;;
18200;SDS011;9226;47.858;9.594;2024-01-10T03:22:08;46.43;;;14.20;;
18200;SDS011;9226;47.858;9.594;2024-01-10T03:24:35;45.47;;;14.80;;
18200;SDS011;9226;47.858;9.594;2024-01-10T03:27:00;47.70;;;13.70;;
18200;SDS011;9226;47.858;9.594;2024-01-10T03:29:25;42.10;;;12.00;;
18200;SDS011;9226;47.858;9.594;2024-01-10T03:31:51;45.07;;;11.97;;
18200;SDS011;9226;47.858;9.594;2024-01-10T03:34:16;35.50;;;12.73;;
18200;SDS011;9226;47.858;9.594;2024-01-10T03:36:43;37.10;;;13.53;;
18200;SDS011;9226;47.858;9.594;2024-01-10T03:39:08;42.17;;;12.93;;
18200;SDS011;9226;47.858;9.594;2024-01-10T03:41:34;37.93;;;11.77;;
18200;SDS011;9226;47.858;9.594;2024-01-10T03:43:59;37.93;;;12.67;;
18200;SDS011;9226;47.858;9.594;2024-01-10T03:46:25;36.07;;;11.80;;
18200;SDS011;9226;47.858;9.594;2024-01-10T03:48:50;37.90;;;12.80;;
18200;SDS011;9226;47.858;9.594;2024-01-10T03:51:17;32.17;;;11.70;;
18200;SDS011;9226;47.858;9.594;2024-01-10T03:53:44;32.37;;;11.63;;
18200;SDS011;9226;47.858;9.594;2024-01-10T03:56:11;27.00;;;9.77;;
18200;SDS011;9226;47.858;9.594;2024-01-10T03:58:37;30.03;;;10.67;;
18200;SDS011;9226;47.858;9.594;2024-01-10T04:01:05;39.13;;;12.47;;
18200;SDS011;9226;47.858;9.594;2024-01-10T04:03:32;38.63;;;13.47;;
18200;SDS011;9226;47.858;9.594;2024-01-10T04:05:57;37.10;;;11.57;;
18200;SDS011;9226;47.858;9.594;2024-01-10T04:08:23;37.53;;;12.77;;
18200;SDS011;9226;47.858;9.594;2024-01-10T04:10:49;39.40;;;12.17;;
18200;SDS011;9226;47.858;9.594;2024-01-10T04:13:14;41.37;;;13.93;;
18200;SDS011;9226;47.858;9.594;2024-01-10T04:15:40;37.77;;;13.90;;
18200;SDS011;9226;47.858;9.594;2024-01-10T04:18:05;35.90;;;12.80;;
18200;SDS011;9226;47.858;9.594;2024-01-10T04:20:30;39.30;;;12.70;;
18200;SDS011;9226;47.858;9.594;2024-01-10T04:22:56;33.40;;;12.57;;
18200;SDS011;9226;47.858;9.594;2024-01-10T04:25:21;34.33;;;12.23;;
18200;SDS011;9226;47.858;9.594;2024-01-10T04:27:46;31.17;;;11.90;;
18200;SDS011;9226;47.858;9.594;2024-01-10T04:30:15;32.20;;;11.57;;
18200;SDS011;9226;47.858;9.594;2024-01-10T04:32:40;37.50;;;12.30;;
18200;SDS011;9226;47.858;9.594;2024-01-10T04:35:06;38.10;;;13.10;;
18200;SDS011;9226;47.858;9.594;2024-01-10T04:37:31;39.07;;;12.77;;
18200;SDS011;9226;47.858;9.594;2024-01-10T04:39:57;44.80;;;12.73;;
18200;SDS011;9226;47.858;9.594;2024-01-10T04:42:22;34.00;;;11.97;;
18200;SDS011;9226;47.858;9.594;2024-01-10T04:44:48;32.60;;;10.87;;
18200;SDS011;9226;47.858;9.594;2024-01-10T04:47:14;49.50;;;14.13;;
18200;SDS011;9226;47.858;9.594;2024-01-10T04:49:40;37.50;;;12.50;;
18200;SDS011;9226;47.858;9.594;2024-01-10T04:52:05;41.60;;;14.33;;
18200;SDS011;9226;47.858;9.594;2024-01-10T04:54:30;41.97;;;14.03;;
18200;SDS011;9226;47.858;9.594;2024-01-10T04:56:56;37.20;;;12.03;;
18200;SDS011;9226;47.858;9.594;2024-01-10T04:59:21;37.17;;;12.43;;
18200;SDS011;9226;47.858;9.594;2024-01-10T05:01:47;32.20;;;11.87;;
18200;SDS011;9226;47.858;9.594;2024-01-10T05:04:12;41.50;;;12.07;;
18200;SDS011;9226;47.858;9.594;2024-01-10T05:06:37;34.47;;;11.30;;
18200;SDS011;9226;47.858;9.594;2024-01-10T05:09:03;35.37;;;10.57;;
18200;SDS011;9226;47.858;9.594;2024-01-10T05:11:29;37.47;;;13.13;;
18200;SDS011;9226;47.858;9.594;2024-01-10T05:13:55;41.60;;;12.03;;
18200;SDS011;9226;47.858;9.594;2024-01-10T05:16:20;36.73;;;11.47;;
18200;SDS011;9226;47.858;9.594;2024-01-10T05:18:46;29.60;;;10.17;;
18200;SDS011;9226;47.858;9.594;2024-01-10T05:21:12;35.03;;;12.37;;
18200;SDS011;9226;47.858;9.594;2024-01-10T05:23:37;32.47;;;10.63;;
18200;SDS011;9226;47.858;9.594;2024-01-10T05:26:04;44.13;;;13.60;;
18200;SDS011;9226;47.858;9.594;2024-01-10T05:28:30;32.63;;;12.07;;
18200;SDS011;9226;47.858;9.594;2024-01-10T05:30:55;40.20;;;12.03;;
18200;SDS011;9226;47.858;9.594;2024-01-10T05:33:21;36.63;;;12.17;;
18200;SDS011;9226;47.858;9.594;2024-01-10T05:35:47;39.37;;;13.33;;
18200;SDS011;9226;47.858;9.594;2024-01-10T05:38:12;40.27;;;12.43;;
18200;SDS011;9226;47.858;9.594;2024-01-10T05:40:37;42.10;;;12.43;;
18200;SDS011;9226;47.858;9.594;2024-01-10T05:43:03;45.07;;;13.77;;
18200;SDS011;9226;47.858;9.594;2024-01-10T05:45:28;33.00;;;12.10;;
18200;SDS011;9226;47.858;9.594;2024-01-10T05:47:54;39.57;;;12.37;;
18200;SDS011;9226;47.858;9.594;2024-01-10T05:50:20;41.77;;;13.03;;
18200;SDS011;9226;47.858;9.594;2024-01-10T05:52:46;39.23;;;12.90;;
18200;SDS011;9226;47.858;9.594;2024-01-10T05:55:12;37.93;;;12.80;;
18200;SDS011;9226;47.858;9.594;2024-01-10T05:57:38;31.33;;;12.60;;
18200;SDS011;9226;47.858;9.594;2024-01-10T06:00:04;51.43;;;15.60;;
18200;SDS011;9226;47.858;9.594;2024-01-10T06:02:34;38.97;;;12.83;;
18200;SDS011;9226;47.858;9.594;2024-01-10T06:05:09;40.60;;;13.43;;
18200;SDS011;9226;47.858;9.594;2024-01-10T06:07:36;37.77;;;12.13;;
18200;SDS011;9226;47.858;9.594;2024-01-10T06:10:01;42.83;;;13.00;;
18200;SDS011;9226;47.858;9.594;2024-01-10T06:12:28;66.73;;;16.67;;
18200;SDS011;9226;47.858;9.594;2024-01-10T06:14:54;45.23;;;13.87;;
18200;SDS011;9226;47.858;9.594;2024-01-10T06:17:19;39.93;;;14.27;;
18200;SDS011;9226;47.858;9.594;2024-01-10T06:19:45;39.87;;;13.20;;
18200;SDS011;9226;47.858;9.594;2024-01-10T06:22:10;35.33;;;13.20;;
18200;SDS011;9226;47.858;9.594;2024-01-10T06:24:39;42.70;;;12.57;;
18200;SDS011;9226;47.858;9.594;2024-01-10T06:27:06;35.27;;;12.77;;
18200;SDS011;9226;47.858;9.594;2024-01-10T06:29:31;44.73;;;13.83;;
18200;SDS011;9226;47.858;9.594;2024-01-10T06:31:57;47.00;;;13.43;;
18200;SDS011;9226;47.858;9.594;2024-01-10T06:34:23;46.53;;;14.57;;
18200;SDS011;9226;47.858;9.594;2024-01-10T06:36:50;41.67;;;14.40;;
18200;SDS011;9226;47.858;9.594;2024-01-10T06:39:15;50.83;;;15.77;;
18200;SDS011;9226;47.858;9.594;2024-01-10T06:41:42;43.10;;;13.53;;
18200;SDS011;9226;47.858;9.594;2024-01-10T06:44:07;39.13;;;13.33;;
18200;SDS011;9226;47.858;9.594;2024-01-10T06:46:33;36.93;;;12.73;;
18200;SDS011;9226;47.858;9.594;2024-01-10T06:48:59;49.57;;;15.63;;
18200;SDS011;9226;47.858;9.594;2024-01-10T06:51:24;46.30;;;15.60;;
18200;SDS011;9226;47.858;9.594;2024-01-10T06:53:51;44.80;;;15.73;;
18200;SDS011;9226;47.858;9.594;2024-01-10T06:56:17;46.77;;;16.00;;
18200;SDS011;9226;47.858;9.594;2024-01-10T06:58:42;52.03;;;17.10;;
18200;SDS011;9226;47.858;9.594;2024-01-10T07:01:12;40.90;;;14.30;;
18200;SDS011;9226;47.858;9.594;2024-01-10T07:03:39;44.10;;;14.53;;
18200;SDS011;9226;47.858;9.594;2024-01-10T07:06:05;48.70;;;15.93;;
18200;SDS011;9226;47.858;9.594;2024-01-10T07:08:30;48.10;;;14.97;;
18200;SDS011;9226;47.858;9.594;2024-01-10T07:10:56;48.57;;;15.67;;
18200;SDS011;9226;47.858;9.594;2024-01-10T07:13:22;49.37;;;17.20;;
18200;SDS011;9226;47.858;9.594;2024-01-10T07:15:47;48.30;;;16.50;;
18200;SDS011;9226;47.858;9.594;2024-01-10T07:18:13;48.10;;;16.40;;
18200;SDS011;9226;47.858;9.594;2024-01-10T07:20:38;49.50;;;15.73;;
18200;SDS011;9226;47.858;9.594;2024-01-10T07:23:03;42.70;;;14.97;;
18200;SDS011;9226;47.858;9.594;2024-01-10T07:25:29;51.10;;;15.87;;
18200;SDS011;9226;47.858;9.594;2024-01-10T07:27:54;51.00;;;16.57;;
18200;SDS011;9226;47.858;9.594;2024-01-10T07:30:20;51.23;;;16.63;;
18200;SDS011;9226;47.858;9.594;2024-01-10T07:32:45;50.97;;;15.43;;
18200;SDS011;9226;47.858;9.594;2024-01-10T07:35:11;50.63;;;16.40;;
18200;SDS011;9226;47.858;9.594;2024-01-10T07:37:39;50.57;;;17.37;;
18200;SDS011;9226;47.858;9.594;2024-01-10T07:40:05;44.77;;;15.57;;
18200;SDS011;9226;47.858;9.594;2024-01-10T07:42:32;47.77;;;17.07;;
18200;SDS011;9226;47.858;9.594;2024-01-10T07:44:58;51.37;;;16.57;;
18200;SDS011;9226;47.858;9.594;2024-01-10T07:47:24;48.40;;;15.10;;
18200;SDS011;9226;47.858;9.594;2024-01-10T07:49:49;43.67;;;15.00;;
18200;SDS011;9226;47.858;9.594;2024-01-10T07:52:15;41.30;;;15.60;;
18200;SDS011;9226;47.858;9.594;2024-01-10T07:54:41;49.47;;;15.30;;
18200;SDS011;9226;47.858;9.594;2024-01-10T07:57:07;40.53;;;15.23;;
18200;SDS011;9226;47.858;9.594;2024-01-10T07:59:32;54.13;;;17.33;;
18200;SDS011;9226;47.858;9.594;2024-01-10T08:01:59;45.87;;;15.77;;
18200;SDS011;9226;47.858;9.594;2024-01-10T08:04:26;50.43;;;15.43;;
18200;SDS011;9226;47.858;9.594;2024-01-10T08:06:52;43.13;;;15.00;;
18200;SDS011;9226;47.858;9.594;2024-01-10T08:09:18;51.80;;;15.53;;
18200;SDS011;9226;47.858;9.594;2024-01-10T08:11:44;41.60;;;15.03;;
18200;SDS011;9226;47.858;9.594;2024-01-10T08:14:10;48.23;;;16.33;;
18200;SDS011;9226;47.858;9.594;2024-01-10T08:16:36;44.37;;;15.17;;
18200;SDS011;9226;47.858;9.594;2024-01-10T08:19:01;39.47;;;14.70;;
18200;SDS011;9226;47.858;9.594;2024-01-10T08:21:26;38.47;;;14.47;;
18200;SDS011;9226;47.858;9.594;2024-01-10T08:23:52;43.13;;;14.10;;
18200;SDS011;9226;47.858;9.594;2024-01-10T08:26:17;42.87;;;14.10;;
18200;SDS011;9226;47.858;9.594;2024-01-10T08:28:43;44.27;;;14.90;;
18200;SDS011;9226;47.858;9.594;2024-01-10T08:31:08;45.97;;;15.10;;
18200;SDS011;9226;47.858;9.594;2024-01-10T08:33:33;45.57;;;14.83;;
18200;SDS011;9226;47.858;9.594;2024-01-10T08:35:59;48.33;;;15.93;;
18200;SDS011;9226;47.858;9.594;2024-01-10T08:38:24;45.00;;;15.00;;
18200;SDS011;9226;47.858;9.594;2024-01-10T08:40:50;46.97;;;14.03;;
18200;SDS011;9226;47.858;9.594;2024-01-10T08:43:15;47.97;;;15.47;;
18200;SDS011;9226;47.858;9.594;2024-01-10T08:45:41;51.33;;;16.37;;
18200;SDS011;9226;47.858;9.594;2024-01-10T08:48:06;50.63;;;14.87;;
18200;SDS011;9226;47.858;9.594;2024-01-10T08:50:32;42.43;;;14.97;;
18200;SDS011;9226;47.858;9.594;2024-01-10T08:52:59;43.80;;;15.67;;
18200;SDS011;9226;47.858;9.594;2024-01-10T08:55:25;42.43;;;13.60;;
18200;SDS011;9226;47.858;9.594;2024-01-10T08:57:51;48.37;;;14.73;;
18200;SDS011;9226;47.858;9.594;2024-01-10T09:00:16;44.73;;;14.80;;
18200;SDS011;9226;47.858;9.594;2024-01-10T09:02:42;42.63;;;14.57;;
18200;SDS011;9226;47.858;9.594;2024-01-10T09:05:07;47.17;;;15.67;;
18200;SDS011;9226;47.858;9.594;2024-01-10T09:07:35;51.23;;;15.87;;
18200;SDS011;9226;47.858;9.594;2024-01-10T09:10:01;41.97;;;15.27;;
18200;SDS011;9226;47.858;9.594;2024-01-10T09:12:26;47.43;;;15.03;;
18200;SDS011;9226;47.858;9.594;2024-01-10T09:14:52;47.17;;;15.70;;
18200;SDS011;9226;47.858;9.594;2024-01-10T09:17:17;44.20;;;13.57;;
18200;SDS011;9226;47.858;9.594;2024-01-10T09:19:42;49.33;;;15.27;;
18200;SDS011;9226;47.858;9.594;2024-01-10T09:22:08;48.27;;;15.47;;
18200;SDS011;9226;47.858;9.594;2024-01-10T09:24:33;45.47;;;14.70;;
18200;SDS011;9226;47.858;9.594;2024-01-10T09:26:58;48.97;;;15.50;;
18200;SDS011;9226;47.858;9.594;2024-01-10T09:29:24;43.60;;;16.33;;
18200;SDS011;9226;47.858;9.594;2024-01-10T09:31:52;42.43;;;15.53;;
18200;SDS011;9226;47.858;9.594;2024-01-10T09:34:18;45.27;;;14.13;;
18200;SDS011;9226;47.858;9.594;2024-01-10T09:36:44;44.77;;;14.90;;
18200;SDS011;9226;47.858;9.594;2024-01-10T09:39:09;41.10;;;14.40;;
18200;SDS011;9226;47.858;9.594;2024-01-10T09:41:40;54.30;;;16.80;;
18200;SDS011;9226;47.858;9.594;2024-01-10T09:44:11;46.80;;;15.67;;
18200;SDS011;9226;47.858;9.594;2024-01-10T09:46:36;46.90;;;15.93;;
18200;SDS011;9226;47.858;9.594;2024-01-10T09:49:06;49.80;;;15.27;;
18200;SDS011;9226;47.858;9.594;2024-01-10T09:51:32;51.57;;;15.73;;
18200;SDS011;9226;47.858;9.594;2024-01-10T09:53:58;51.27;;;16.57;;
18200;SDS011;9226;47.858;9.594;2024-01-10T09:56:28;60.00;;;16.27;;
18200;SDS011;9226;47.858;9.594;2024-01-10T09:58:55;52.47;;;15.57;;
18200;SDS011;9226;47.858;9.594;2024-01-10T10:01:23;55.23;;;18.33;;
18200;SDS011;9226;47.858;9.594;2024-01-10T10:03:49;54.23;;;18.60;;
18200;SDS011;9226;47.858;9.594;2024-01-10T10:06:15;55.23;;;17.13;;
18200;SDS011;9226;47.858;9.594;2024-01-10T10:08:41;53.53;;;16.10;;
18200;SDS011;9226;47.858;9.594;2024-01-10T10:11:07;53.20;;;16.40;;
18200;SDS011;9226;47.858;9.594;2024-01-10T10:13:37;59.07;;;17.30;;
18200;SDS011;9226;47.858;9.594;2024-01-10T10:16:06;64.33;;;18.37;;
18200;SDS011;9226;47.858;9.594;2024-01-10T10:18:34;72.13;;;17.67;;
18200;SDS011;9226;47.858;9.594;2024-01-10T10:21:12;61.50;;;18.47;;
18200;SDS011;9226;47.858;9.594;2024-01-10T10:23:43;62.30;;;19.23;;
18200;SDS011;9226;47.858;9.594;2024-01-10T10:26:22;70.00;;;18.23;;
18200;SDS011;9226;47.858;9.594;2024-01-10T10:28:49;62.80;;;17.37;;
18200;SDS011;9226;47.858;9.594;2024-01-10T10:31:15;63.73;;;19.10;;
18200;SDS011;9226;47.858;9.594;2024-01-10T10:33:42;65.50;;;19.60;;
18200;SDS011;9226;47.858;9.594;2024-01-10T10:36:08;79.97;;;18.90;;
18200;SDS011;9226;47.858;9.594;2024-01-10T10:38:34;69.37;;;18.63;;
18200;SDS011;9226;47.858;9.594;2024-01-10T10:41:02;64.63;;;17.83;;
18200;SDS011;9226;47.858;9.594;2024-01-10T10:43:31;93.43;;;18.87;;
18200;SDS011;9226;47.858;9.594;2024-01-10T10:46:06;62.13;;;18.20;;
18200;SDS011;9226;47.858;9.594;2024-01-10T10:48:37;61.27;;;19.20;;
18200;SDS011;9226;47.858;9.594;2024-01-10T10:53:32;69.30;;;19.13;;
18200;SDS011;9226;47.858;9.594;2024-01-10T10:56:00;63.97;;;19.57;;
18200;SDS011;9226;47.858;9.594;2024-01-10T10:58:29;56.60;;;17.97;;
18200;SDS011;9226;47.858;9.594;2024-01-10T11:01:00;65.93;;;17.70;;
18200;SDS011;9226;47.858;9.594;2024-01-10T11:03:28;64.60;;;17.50;;
18200;SDS011;9226;47.858;9.594;2024-01-10T11:05:54;60.50;;;17.57;;
18200;SDS011;9226;47.858;9.594;2024-01-10T11:08:21;61.60;;;17.70;;
18200;SDS011;9226;47.858;9.594;2024-01-10T11:10:48;65.60;;;20.17;;
18200;SDS011;9226;47.858;9.594;2024-01-10T11:16:07;66.50;;;19.30;;
18200;SDS011;9226;47.858;9.594;2024-01-10T11:21:44;61.03;;;21.07;;
18200;SDS011;9226;47.858;9.594;2024-01-10T11:24:14;61.77;;;18.87;;
18200;SDS011;9226;47.858;9.594;2024-01-10T11:26:40;66.03;;;19.23;;
18200;SDS011;9226;47.858;9.594;2024-01-10T11:29:06;70.80;;;22.67;;
18200;SDS011;9226;47.858;9.594;2024-01-10T11:31:31;65.03;;;19.87;;
18200;SDS011;9226;47.858;9.594;2024-01-10T11:33:58;69.53;;;24.47;;
18200;SDS011;9226;47.858;9.594;2024-01-10T11:36:25;63.13;;;19.63;;
18200;SDS011;9226;47.858;9.594;2024-01-10T11:41:21;60.77;;;18.47;;
18200;SDS011;9226;47.858;9.594;2024-01-10T11:46:41;56.60;;;18.90;;
18200;SDS011;9226;47.858;9.594;2024-01-10T11:49:08;58.77;;;19.67;;
18200;SDS011;9226;47.858;9.594;2024-01-10T11:51:37;54.83;;;18.77;;
18200;SDS011;9226;47.858;9.594;2024-01-10T11:54:03;53.33;;;17.73;;
18200;SDS011;9226;47.858;9.594;2024-01-10T11:56:38;73.17;;;22.37;;
18200;SDS011;9226;47.858;9.594;2024-01-10T11:59:09;55.77;;;18.13;;
18200;SDS011;9226;47.858;9.594;2024-01-10T12:01:39;47.50;;;15.90;;
18200;SDS011;9226;47.858;9.594;2024-01-10T12:04:06;56.50;;;19.23;;
18200;SDS011;9226;47.858;9.594;2024-01-10T12:06:35;64.30;;;21.10;;
18200;SDS011;9226;47.858;9.594;2024-01-10T12:09:02;58.53;;;17.07;;
18200;SDS011;9226;47.858;9.594;2024-01-10T12:11:34;48.93;;;15.67;;
18200;SDS011;9226;47.858;9.594;2024-01-10T12:14:00;58.50;;;16.57;;
18200;SDS011;9226;47.858;9.594;2024-01-10T12:16:26;58.57;;;17.00;;
18200;SDS011;9226;47.858;9.594;2024-01-10T12:18:51;50.17;;;16.13;;
18200;SDS011;9226;47.858;9.594;2024-01-10T12:21:17;50.53;;;15.80;;
18200;SDS011;9226;47.858;9.594;2024-01-10T12:23:42;65.23;;;18.40;;
18200;SDS011;9226;47.858;9.594;2024-01-10T12:26:08;188.73;;;48.90;;
18200;SDS011;9226;47.858;9.594;2024-01-10T12:28:37;75.67;;;25.87;;
18200;SDS011;9226;47.858;9.594;2024-01-10T12:31:04;48.07;;;15.93;;
18200;SDS011;9226;47.858;9.594;2024-01-10T12:33:32;51.97;;;17.53;;
18200;SDS011;9226;47.858;9.594;2024-01-10T12:36:02;54.37;;;16.87;;
18200;SDS011;9226;47.858;9.594;2024-01-10T12:38:35;61.13;;;20.57;;
18200;SDS011;9226;47.858;9.594;2024-01-10T12:41:02;53.80;;;18.03;;
18200;SDS011;9226;47.858;9.594;2024-01-10T12:43:29;53.50;;;16.73;;
18200;SDS011;9226;47.858;9.594;2024-01-10T12:46:10;57.03;;;18.20;;
18200;SDS011;9226;47.858;9.594;2024-01-10T12:48:37;54.37;;;17.43;;
18200;SDS011;9226;47.858;9.594;2024-01-10T12:51:06;60.53;;;20.40;;
18200;SDS011;9226;47.858;9.594;2024-01-10T12:53:35;90.30;;;28.87;;
18200;SDS011;9226;47.858;9.594;2024-01-10T12:56:02;86.90;;;30.57;;
18200;SDS011;9226;47.858;9.594;2024-01-10T12:58:29;73.77;;;26.83;;
18200;SDS011;9226;47.858;9.594;2024-01-10T13:00:55;73.80;;;22.97;;
18200;SDS011;9226;47.858;9.594;2024-01-10T13:03:21;65.70;;;22.47;;
18200;SDS011;9226;47.858;9.594;2024-01-10T13:05:46;61.77;;;17.73;;
18200;SDS011;9226;47.858;9.594;2024-01-10T13:08:12;63.43;;;20.83;;
18200;SDS011;9226;47.858;9.594;2024-01-10T13:10:38;57.63;;;19.00;;
18200;SDS011;9226;47.858;9.594;2024-01-10T13:13:03;62.67;;;20.27;;
18200;SDS011;9226;47.858;9.594;2024-01-10T13:15:29;62.03;;;19.27;;
18200;SDS011;9226;47.858;9.594;2024-01-10T13:17:55;64.30;;;20.10;;
18200;SDS011;9226;47.858;9.594;2024-01-10T13:20:21;60.50;;;17.07;;
18200;SDS011;9226;47.858;9.594;2024-01-10T13:22:46;59.87;;;17.17;;
18200;SDS011;9226;47.858;9.594;2024-01-10T13:25:12;55.53;;;16.50;;
18200;SDS011;9226;47.858;9.594;2024-01-10T13:27:38;48.77;;;15.87;;
18200;SDS011;9226;47.858;9.594;2024-01-10T13:30:03;59.63;;;15.93;;
18200;SDS011;9226;47.858;9.594;2024-01-10T13:32:30;52.33;;;16.47;;
18200;SDS011;9226;47.858;9.594;2024-01-10T13:34:56;53.00;;;16.60;;
18200;SDS011;9226;47.858;9.594;2024-01-10T13:37:22;58.13;;;16.90;;
18200;SDS011;9226;47.858;9.594;2024-01-10T13:39:48;67.10;;;17.33;;
18200;SDS011;9226;47.858;9.594;2024-01-10T13:42:13;55.70;;;15.83;;
18200;SDS011;9226;47.858;9.594;2024-01-10T13:44:39;56.83;;;16.43;;
18200;SDS011;9226;47.858;9.594;2024-01-10T13:47:05;53.03;;;16.90;;
18200;SDS011;9226;47.858;9.594;2024-01-10T13:49:30;56.73;;;17.00;;
18200;SDS011;9226;47.858;9.594;2024-01-10T13:51:55;58.23;;;16.73;;
18200;SDS011;9226;47.858;9.594;2024-01-10T13:54:21;58.23;;;16.73;;
18200;SDS011;9226;47.858;9.594;2024-01-10T13:56:47;58.40;;;17.13;;
18200;SDS011;9226;47.858;9.594;2024-01-10T13:59:12;65.20;;;18.87;;
18200;SDS011;9226;47.858;9.594;2024-01-10T14:01:38;70.00;;;22.37;;
18200;SDS011;9226;47.858;9.594;2024-01-10T14:04:03;61.77;;;18.77;;
18200;SDS011;9226;47.858;9.594;2024-01-10T14:06:29;62.43;;;20.00;;
18200;SDS011;9226;47.858;9.594;2024-01-10T14:08:55;69.87;;;20.93;;
18200;SDS011;9226;47.858;9.594;2024-01-10T14:11:20;57.13;;;18.07;;
18200;SDS011;9226;47.858;9.594;2024-01-10T14:13:45;81.23;;;24.17;;
18200;SDS011;9226;47.858;9.594;2024-01-10T14:16:11;65.30;;;20.50;;
18200;SDS011;9226;47.858;9.594;2024-01-10T14:18:36;75.00;;;22.47;;
18200;SDS011;9226;47.858;9.594;2024-01-10T14:21:02;65.43;;;19.07;;
18200;SDS011;9226;47.858;9.594;2024-01-10T14:23:27;57.73;;;17.17;;
18200;SDS011;9226;47.858;9.594;2024-01-10T14:25:53;62.30;;;18.90;;
18200;SDS011;9226;47.858;9.594;2024-01-10T14:28:18;63.97;;;17.47;;
18200;SDS011;9226;47.858;9.594;2024-01-10T14:30:45;56.27;;;18.33;;
18200;SDS011;9226;47.858;9.594;2024-01-10T14:33:11;66.93;;;18.43;;
18200;SDS011;9226;47.858;9.594;2024-01-10T14:35:38;79.97;;;22.00;;
18200;SDS011;9226;47.858;9.594;2024-01-10T14:38:07;60.37;;;18.33;;
18200;SDS011;9226;47.858;9.594;2024-01-10T14:40:32;58.63;;;17.47;;
18200;SDS011;9226;47.858;9.594;2024-01-10T14:42:58;53.80;;;15.80;;